sensor_id;sensor_type;location;lat;lon;timestamp;pressure;altitude;pressure_sealevel;temperature;humidity
2711;BME280;20721;47.402;8.550;2023-01-25T00:00:24;97437;;;4.68;58.33
2711;BME280;20721;47.402;8.550;2023-01-25T00:01:24;97438;;;4.70;58.27
2711;BME280;20721;47.402;8.550;2023-01-25T00:02:25;97436;;;4.74;58.17
2711;BME280;20721;47.402;8.550;2023-01-25T00:03:24;97439;;;4.81;58.12
2711;BME280;20721;47.402;8.550;2023-01-25T00:04:25;97437;;;4.84;57.85
2711;BME280;20721;47.402;8.550;2023-01-25T00:05:24;97436;;;4.85;57.73
2711;BME280;20721;47.402;8.550;2023-01-25T00:06:24;97436;;;4.88;57.70
2711;BME280;20721;47.402;8.550;2023-01-25T00:07:24;97434;;;4.91;57.74
2711;BME280;20721;47.402;8.550;2023-01-25T00:08:24;97435;;;4.95;57.52
2711;BME280;20721;47.402;8.550;2023-01-25T00:09:24;97435;;;4.96;57.46
2711;BME280;20721;47.402;8.550;2023-01-25T00:10:24;97431;;;4.88;57.53
2711;BME280;20721;47.402;8.550;2023-01-25T00:11:24;97428;;;4.87;57.61
2711;BME280;20721;47.402;8.550;2023-01-25T00:12:24;97429;;;4.90;57.69
2711;BME280;20721;47.402;8.550;2023-01-25T00:13:25;97427;;;4.88;57.54
2711;BME280;20721;47.402;8.550;2023-01-25T00:14:24;97428;;;4.82;57.79
2711;BME280;20721;47.402;8.550;2023-01-25T00:15:24;97426;;;4.76;57.55
2711;BME280;20721;47.402;8.550;2023-01-25T00:16:25;97425;;;4.60;57.69
2711;BME280;20721;47.402;8.550;2023-01-25T00:17:25;97421;;;4.37;58.34
2711;BME280;20721;47.402;8.550;2023-01-25T00:18:24;97419;;;4.28;58.54
2711;BME280;20721;47.402;8.550;2023-01-25T00:19:25;97418;;;4.21;58.80
2711;BME280;20721;47.402;8.550;2023-01-25T00:21:25;97417;;;4.16;58.86
2711;BME280;20721;47.402;8.550;2023-01-25T00:22:24;97418;;;4.14;59.10
2711;BME280;20721;47.402;8.550;2023-01-25T00:24:25;97419;;;4.15;59.01
2711;BME280;20721;47.402;8.550;2023-01-25T00:25:24;97416;;;4.14;59.29
2711;BME280;20721;47.402;8.550;2023-01-25T00:26:25;97420;;;4.17;59.29
2711;BME280;20721;47.402;8.550;2023-01-25T00:27:25;97417;;;4.21;59.15
2711;BME280;20721;47.402;8.550;2023-01-25T00:28:24;97418;;;4.18;58.86
2711;BME280;20721;47.402;8.550;2023-01-25T00:29:25;97419;;;4.14;59.04
2711;BME280;20721;47.402;8.550;2023-01-25T00:30:25;97420;;;4.11;58.97
2711;BME280;20721;47.402;8.550;2023-01-25T00:32:27;97415;;;4.01;59.28
2711;BME280;20721;47.402;8.550;2023-01-25T00:33:34;97419;;;4.04;59.33
2711;BME280;20721;47.402;8.550;2023-01-25T00:35:28;97415;;;4.10;59.08
2711;BME280;20721;47.402;8.550;2023-01-25T00:36:40;97414;;;4.02;59.22
2711;BME280;20721;47.402;8.550;2023-01-25T00:39:24;97410;;;4.06;59.36
2711;BME280;20721;47.402;8.550;2023-01-25T00:40:25;97413;;;4.08;59.30
2711;BME280;20721;47.402;8.550;2023-01-25T00:42:24;97409;;;4.15;59.17
2711;BME280;20721;47.402;8.550;2023-01-25T00:43:25;97413;;;4.21;59.04
2711;BME280;20721;47.402;8.550;2023-01-25T00:44:24;97411;;;4.27;58.86
2711;BME280;20721;47.402;8.550;2023-01-25T00:45:25;97409;;;4.28;58.83
2711;BME280;20721;47.402;8.550;2023-01-25T00:46:25;97401;;;3.95;59.47
2711;BME280;20721;47.402;8.550;2023-01-25T00:47:24;97404;;;3.89;59.91
2711;BME280;20721;47.402;8.550;2023-01-25T00:48:24;97405;;;3.82;60.22
2711;BME280;20721;47.402;8.550;2023-01-25T00:50:25;97403;;;3.83;60.32
2711;BME280;20721;47.402;8.550;2023-01-25T00:51:25;97400;;;3.93;60.16
2711;BME280;20721;47.402;8.550;2023-01-25T00:52:26;97396;;;4.05;59.73
2711;BME280;20721;47.402;8.550;2023-01-25T00:53:25;97392;;;4.01;59.41
2711;BME280;20721;47.402;8.550;2023-01-25T00:55:24;97384;;;4.08;59.32
2711;BME280;20721;47.402;8.550;2023-01-25T00:56:24;97386;;;4.15;59.01
2711;BME280;20721;47.402;8.550;2023-01-25T00:57:25;97381;;;4.18;59.04
2711;BME280;20721;47.402;8.550;2023-01-25T00:58:25;97379;;;4.26;58.98
2711;BME280;20721;47.402;8.550;2023-01-25T00:59:25;97376;;;4.36;58.77
2711;BME280;20721;47.402;8.550;2023-01-25T01:00:25;97379;;;4.46;58.52
2711;BME280;20721;47.402;8.550;2023-01-25T01:01:25;97377;;;4.50;58.19
2711;BME280;20721;47.402;8.550;2023-01-25T01:03:25;97375;;;4.35;58.10
2711;BME280;20721;47.402;8.550;2023-01-25T01:04:25;97379;;;4.29;58.32
2711;BME280;20721;47.402;8.550;2023-01-25T01:05:26;97381;;;4.15;58.69
2711;BME280;20721;47.402;8.550;2023-01-25T01:06:25;97371;;;3.95;59.19
2711;BME280;20721;47.402;8.550;2023-01-25T01:07:25;97373;;;3.79;59.39
2711;BME280;20721;47.402;8.550;2023-01-25T01:08:25;97376;;;3.64;59.94
2711;BME280;20721;47.402;8.550;2023-01-25T01:09:25;97376;;;3.69;60.11
2711;BME280;20721;47.402;8.550;2023-01-25T01:10:25;97380;;;3.67;60.01
2711;BME280;20721;47.402;8.550;2023-01-25T01:11:25;97383;;;3.57;60.17
2711;BME280;20721;47.402;8.550;2023-01-25T01:12:25;97386;;;3.61;60.32
2711;BME280;20721;47.402;8.550;2023-01-25T01:13:25;97385;;;3.68;60.32
2711;BME280;20721;47.402;8.550;2023-01-25T01:14:25;97393;;;3.80;60.09
2711;BME280;20721;47.402;8.550;2023-01-25T01:15:25;97390;;;3.93;59.87
2711;BME280;20721;47.402;8.550;2023-01-25T01:16:25;97393;;;3.96;59.52
2711;BME280;20721;47.402;8.550;2023-01-25T01:17:25;97393;;;4.01;59.44
2711;BME280;20721;47.402;8.550;2023-01-25T01:18:25;97393;;;4.06;59.32
2711;BME280;20721;47.402;8.550;2023-01-25T01:19:25;97392;;;4.12;59.09
2711;BME280;20721;47.402;8.550;2023-01-25T01:20:25;97394;;;4.17;59.08
2711;BME280;20721;47.402;8.550;2023-01-25T01:21:25;97389;;;4.09;59.18
2711;BME280;20721;47.402;8.550;2023-01-25T01:22:25;97392;;;4.10;59.17
2711;BME280;20721;47.402;8.550;2023-01-25T01:23:25;97392;;;4.13;59.15
2711;BME280;20721;47.402;8.550;2023-01-25T01:25:25;97389;;;4.10;59.01
2711;BME280;20721;47.402;8.550;2023-01-25T01:26:25;97396;;;3.99;59.23
2711;BME280;20721;47.402;8.550;2023-01-25T01:27:25;97396;;;3.75;59.70
2711;BME280;20721;47.402;8.550;2023-01-25T01:28:26;97395;;;3.67;60.06
2711;BME280;20721;47.402;8.550;2023-01-25T01:29:25;97391;;;3.68;60.12
2711;BME280;20721;47.402;8.550;2023-01-25T01:30:25;97388;;;3.77;59.99
2711;BME280;20721;47.402;8.550;2023-01-25T01:31:25;97390;;;3.84;59.81
2711;BME280;20721;47.402;8.550;2023-01-25T01:32:25;97389;;;3.95;59.68
2711;BME280;20721;47.402;8.550;2023-01-25T01:33:25;97390;;;4.06;59.40
2711;BME280;20721;47.402;8.550;2023-01-25T01:34:25;97392;;;4.12;59.06
2711;BME280;20721;47.402;8.550;2023-01-25T01:35:25;97395;;;4.17;58.98
2711;BME280;20721;47.402;8.550;2023-01-25T01:36:26;97397;;;4.22;58.89
2711;BME280;20721;47.402;8.550;2023-01-25T01:37:25;97398;;;4.23;58.83
2711;BME280;20721;47.402;8.550;2023-01-25T01:38:25;97399;;;4.26;58.86
2711;BME280;20721;47.402;8.550;2023-01-25T01:39:25;97398;;;4.22;58.70
2711;BME280;20721;47.402;8.550;2023-01-25T01:40:25;97400;;;4.24;58.86
2711;BME280;20721;47.402;8.550;2023-01-25T01:41:25;97398;;;3.99;58.96
2711;BME280;20721;47.402;8.550;2023-01-25T01:42:25;97396;;;3.86;59.50
2711;BME280;20721;47.402;8.550;2023-01-25T01:43:25;97397;;;3.82;59.52
2711;BME280;20721;47.402;8.550;2023-01-25T01:47:28;97393;;;3.53;60.36
2711;BME280;20721;47.402;8.550;2023-01-25T01:49:25;97400;;;3.34;61.02
2711;BME280;20721;47.402;8.550;2023-01-25T01:52:29;97401;;;3.43;60.93
2711;BME280;20721;47.402;8.550;2023-01-25T01:53:25;97403;;;3.48;60.91
2711;BME280;20721;47.402;8.550;2023-01-25T01:54:28;97401;;;3.56;60.66
2711;BME280;20721;47.402;8.550;2023-01-25T01:55:25;97398;;;3.62;60.51
2711;BME280;20721;47.402;8.550;2023-01-25T01:56:27;97393;;;3.71;60.35
2711;BME280;20721;47.402;8.550;2023-01-25T01:58:25;97391;;;3.62;60.32
2711;BME280;20721;47.402;8.550;2023-01-25T01:59:26;97383;;;3.64;60.28
2711;BME280;20721;47.402;8.550;2023-01-25T02:00:26;97381;;;3.75;60.08
2711;BME280;20721;47.402;8.550;2023-01-25T02:01:25;97377;;;3.86;59.78
2711;BME280;20721;47.402;8.550;2023-01-25T02:02:25;97380;;;3.97;59.54
2711;BME280;20721;47.402;8.550;2023-01-25T02:03:25;97380;;;3.98;59.42
2711;BME280;20721;47.402;8.550;2023-01-25T02:04:25;97387;;;4.07;59.32
2711;BME280;20721;47.402;8.550;2023-01-25T02:06:26;97372;;;3.97;59.04
2711;BME280;20721;47.402;8.550;2023-01-25T02:07:28;97371;;;3.94;59.29
2711;BME280;20721;47.402;8.550;2023-01-25T02:08:25;97375;;;4.00;59.38
2711;BME280;20721;47.402;8.550;2023-01-25T02:10:25;97379;;;3.99;59.17
2711;BME280;20721;47.402;8.550;2023-01-25T02:11:25;97372;;;3.96;59.18
2711;BME280;20721;47.402;8.550;2023-01-25T02:13:25;97367;;;3.95;59.24
2711;BME280;20721;47.402;8.550;2023-01-25T02:14:26;97375;;;3.99;59.32
2711;BME280;20721;47.402;8.550;2023-01-25T02:15:26;97375;;;4.05;59.22
2711;BME280;20721;47.402;8.550;2023-01-25T02:16:26;97376;;;4.09;58.90
2711;BME280;20721;47.402;8.550;2023-01-25T02:17:26;97377;;;4.12;58.92
2711;BME280;20721;47.402;8.550;2023-01-25T02:21:25;97381;;;4.16;58.76
2711;BME280;20721;47.402;8.550;2023-01-25T02:22:33;97379;;;4.08;59.04
2711;BME280;20721;47.402;8.550;2023-01-25T02:23:28;97375;;;4.10;59.00
2711;BME280;20721;47.402;8.550;2023-01-25T02:24:27;97374;;;4.17;58.89
2711;BME280;20721;47.402;8.550;2023-01-25T02:25:26;97380;;;4.23;58.62
2711;BME280;20721;47.402;8.550;2023-01-25T02:26:25;97383;;;4.19;58.52
2711;BME280;20721;47.402;8.550;2023-01-25T02:27:25;97378;;;4.10;58.82
2711;BME280;20721;47.402;8.550;2023-01-25T02:29:25;97377;;;4.11;58.89
2711;BME280;20721;47.402;8.550;2023-01-25T02:30:25;97376;;;4.09;58.89
2711;BME280;20721;47.402;8.550;2023-01-25T02:31:25;97377;;;4.01;59.01
2711;BME280;20721;47.402;8.550;2023-01-25T02:32:25;97370;;;3.95;59.23
2711;BME280;20721;47.402;8.550;2023-01-25T02:33:25;97371;;;3.92;59.42
2711;BME280;20721;47.402;8.550;2023-01-25T02:34:25;97368;;;3.84;59.54
2711;BME280;20721;47.402;8.550;2023-01-25T02:35:42;97369;;;3.83;59.68
2711;BME280;20721;47.402;8.550;2023-01-25T02:36:27;97367;;;3.89;59.73
2711;BME280;20721;47.402;8.550;2023-01-25T02:37:25;97375;;;3.96;59.65
2711;BME280;20721;47.402;8.550;2023-01-25T02:38:25;97370;;;3.94;59.38
2711;BME280;20721;47.402;8.550;2023-01-25T02:39:25;97371;;;3.97;59.41
2711;BME280;20721;47.402;8.550;2023-01-25T02:40:25;97368;;;4.04;59.29
2711;BME280;20721;47.402;8.550;2023-01-25T02:41:29;97367;;;4.08;58.95
2711;BME280;20721;47.402;8.550;2023-01-25T02:42:28;97376;;;4.15;58.85
2711;BME280;20721;47.402;8.550;2023-01-25T02:43:27;97369;;;4.14;58.68
2711;BME280;20721;47.402;8.550;2023-01-25T02:45:26;97367;;;4.08;58.76
2711;BME280;20721;47.402;8.550;2023-01-25T02:46:27;97365;;;4.10;58.86
2711;BME280;20721;47.402;8.550;2023-01-25T02:47:25;97365;;;4.09;58.84
2711;BME280;20721;47.402;8.550;2023-01-25T02:48:25;97365;;;4.12;58.76
2711;BME280;20721;47.402;8.550;2023-01-25T02:49:25;97366;;;4.06;58.61
2711;BME280;20721;47.402;8.550;2023-01-25T02:50:25;97364;;;4.00;59.00
2711;BME280;20721;47.402;8.550;2023-01-25T02:51:26;97367;;;4.03;59.00
2711;BME280;20721;47.402;8.550;2023-01-25T02:53:26;97362;;;4.00;58.83
2711;BME280;20721;47.402;8.550;2023-01-25T02:55:25;97359;;;4.02;58.99
2711;BME280;20721;47.402;8.550;2023-01-25T02:56:25;97360;;;4.03;58.98
2711;BME280;20721;47.402;8.550;2023-01-25T02:57:25;97357;;;4.00;59.07
2711;BME280;20721;47.402;8.550;2023-01-25T02:58:25;97355;;;3.94;59.13
2711;BME280;20721;47.402;8.550;2023-01-25T02:59:25;97349;;;3.72;59.43
2711;BME280;20721;47.402;8.550;2023-01-25T03:00:25;97356;;;3.73;59.67
2711;BME280;20721;47.402;8.550;2023-01-25T03:01:25;97353;;;3.59;59.90
2711;BME280;20721;47.402;8.550;2023-01-25T03:02:25;97353;;;3.53;60.09
2711;BME280;20721;47.402;8.550;2023-01-25T03:03:25;97352;;;3.58;60.08
2711;BME280;20721;47.402;8.550;2023-01-25T03:04:25;97347;;;3.69;59.80
2711;BME280;20721;47.402;8.550;2023-01-25T03:05:25;97347;;;3.71;59.68
2711;BME280;20721;47.402;8.550;2023-01-25T03:06:25;97347;;;3.74;59.47
2711;BME280;20721;47.402;8.550;2023-01-25T03:07:25;97350;;;3.82;59.31
2711;BME280;20721;47.402;8.550;2023-01-25T03:08:25;97351;;;3.88;59.30
2711;BME280;20721;47.402;8.550;2023-01-25T03:09:25;97350;;;3.78;59.04
2711;BME280;20721;47.402;8.550;2023-01-25T03:10:25;97351;;;3.71;59.50
2711;BME280;20721;47.402;8.550;2023-01-25T03:11:25;97350;;;3.70;59.66
2711;BME280;20721;47.402;8.550;2023-01-25T03:13:25;97354;;;3.68;59.71
2711;BME280;20721;47.402;8.550;2023-01-25T03:14:25;97350;;;3.69;59.80
2711;BME280;20721;47.402;8.550;2023-01-25T03:15:25;97350;;;3.72;59.49
2711;BME280;20721;47.402;8.550;2023-01-25T03:16:25;97347;;;3.74;59.33
2711;BME280;20721;47.402;8.550;2023-01-25T03:17:25;97346;;;3.64;59.36
2711;BME280;20721;47.402;8.550;2023-01-25T03:18:25;97344;;;3.57;59.62
2711;BME280;20721;47.402;8.550;2023-01-25T03:19:25;97345;;;3.52;59.77
2711;BME280;20721;47.402;8.550;2023-01-25T03:20:25;97341;;;3.45;60.13
2711;BME280;20721;47.402;8.550;2023-01-25T03:21:25;97337;;;3.49;60.23
2711;BME280;20721;47.402;8.550;2023-01-25T03:22:25;97336;;;3.55;59.99
2711;BME280;20721;47.402;8.550;2023-01-25T03:23:25;97333;;;3.59;59.78
2711;BME280;20721;47.402;8.550;2023-01-25T03:24:25;97334;;;3.57;59.48
2711;BME280;20721;47.402;8.550;2023-01-25T03:25:25;97337;;;3.56;59.80
2711;BME280;20721;47.402;8.550;2023-01-25T03:26:25;97333;;;3.50;59.80
2711;BME280;20721;47.402;8.550;2023-01-25T03:28:25;97340;;;3.52;59.88
2711;BME280;20721;47.402;8.550;2023-01-25T03:29:25;97335;;;3.56;59.90
2711;BME280;20721;47.402;8.550;2023-01-25T03:30:25;97336;;;3.65;59.78
2711;BME280;20721;47.402;8.550;2023-01-25T03:31:25;97340;;;3.68;59.53
2711;BME280;20721;47.402;8.550;2023-01-25T03:32:25;97337;;;3.73;59.56
2711;BME280;20721;47.402;8.550;2023-01-25T03:34:25;97336;;;3.71;59.48
2711;BME280;20721;47.402;8.550;2023-01-25T03:35:25;97334;;;3.73;59.46
2711;BME280;20721;47.402;8.550;2023-01-25T03:36:25;97332;;;3.76;59.53
2711;BME280;20721;47.402;8.550;2023-01-25T03:37:29;97334;;;3.86;59.34
2711;BME280;20721;47.402;8.550;2023-01-25T03:38:25;97332;;;3.94;58.90
2711;BME280;20721;47.402;8.550;2023-01-25T03:39:25;97329;;;3.99;58.71
2711;BME280;20721;47.402;8.550;2023-01-25T03:40:25;97329;;;4.00;58.56
2711;BME280;20721;47.402;8.550;2023-01-25T03:41:25;97326;;;3.91;58.60
2711;BME280;20721;47.402;8.550;2023-01-25T03:42:25;97325;;;3.90;58.70
2711;BME280;20721;47.402;8.550;2023-01-25T03:43:25;97323;;;3.91;58.85
2711;BME280;20721;47.402;8.550;2023-01-25T03:44:25;97320;;;3.93;58.81
2711;BME280;20721;47.402;8.550;2023-01-25T03:45:25;97318;;;3.97;58.70
2711;BME280;20721;47.402;8.550;2023-01-25T03:46:25;97314;;;3.98;58.71
2711;BME280;20721;47.402;8.550;2023-01-25T03:47:25;97314;;;4.02;58.62
2711;BME280;20721;47.402;8.550;2023-01-25T03:48:25;97314;;;3.98;58.70
2711;BME280;20721;47.402;8.550;2023-01-25T03:49:26;97313;;;3.93;58.57
2711;BME280;20721;47.402;8.550;2023-01-25T03:50:25;97313;;;3.87;58.97
2711;BME280;20721;47.402;8.550;2023-01-25T03:51:25;97312;;;3.82;59.03
2711;BME280;20721;47.402;8.550;2023-01-25T03:52:26;97308;;;3.87;59.08
2711;BME280;20721;47.402;8.550;2023-01-25T03:53:28;97306;;;3.91;58.92
2711;BME280;20721;47.402;8.550;2023-01-25T03:54:25;97306;;;3.88;58.77
2711;BME280;20721;47.402;8.550;2023-01-25T03:55:25;97306;;;3.78;58.76
2711;BME280;20721;47.402;8.550;2023-01-25T03:56:25;97306;;;3.55;59.42
2711;BME280;20721;47.402;8.550;2023-01-25T03:57:25;97298;;;3.44;59.96
2711;BME280;20721;47.402;8.550;2023-01-25T03:58:25;97303;;;3.46;59.92
2711;BME280;20721;47.402;8.550;2023-01-25T03:59:25;97303;;;3.56;59.71
2711;BME280;20721;47.402;8.550;2023-01-25T04:00:25;97306;;;3.68;59.62
2711;BME280;20721;47.402;8.550;2023-01-25T04:01:25;97305;;;3.75;59.21
2711;BME280;20721;47.402;8.550;2023-01-25T04:02:25;97310;;;3.79;59.12
2711;BME280;20721;47.402;8.550;2023-01-25T04:03:25;97307;;;3.83;58.96
2711;BME280;20721;47.402;8.550;2023-01-25T04:04:25;97307;;;3.77;58.76
2711;BME280;20721;47.402;8.550;2023-01-25T04:05:25;97308;;;3.57;59.29
2711;BME280;20721;47.402;8.550;2023-01-25T04:06:25;97306;;;3.54;59.68
2711;BME280;20721;47.402;8.550;2023-01-25T04:07:25;97308;;;3.58;59.73
2711;BME280;20721;47.402;8.550;2023-01-25T04:08:25;97307;;;3.61;59.65
2711;BME280;20721;47.402;8.550;2023-01-25T04:09:25;97305;;;3.67;59.62
2711;BME280;20721;47.402;8.550;2023-01-25T04:10:25;97305;;;3.76;59.38
2711;BME280;20721;47.402;8.550;2023-01-25T04:11:25;97299;;;3.80;59.23
2711;BME280;20721;47.402;8.550;2023-01-25T04:12:25;97303;;;3.76;59.32
2711;BME280;20721;47.402;8.550;2023-01-25T04:13:25;97306;;;3.78;59.38
2711;BME280;20721;47.402;8.550;2023-01-25T04:14:35;97303;;;3.85;59.44
2711;BME280;20721;47.402;8.550;2023-01-25T04:15:25;97305;;;3.93;59.09
2711;BME280;20721;47.402;8.550;2023-01-25T04:16:26;97306;;;3.97;59.04
2711;BME280;20721;47.402;8.550;2023-01-25T04:17:25;97308;;;4.05;58.84
2711;BME280;20721;47.402;8.550;2023-01-25T04:18:25;97307;;;4.12;58.77
2711;BME280;20721;47.402;8.550;2023-01-25T04:19:25;97308;;;4.18;58.46
2711;BME280;20721;47.402;8.550;2023-01-25T04:21:25;97308;;;4.23;58.23
2711;BME280;20721;47.402;8.550;2023-01-25T04:22:25;97309;;;4.28;58.23
2711;BME280;20721;47.402;8.550;2023-01-25T04:23:25;97311;;;4.32;58.02
2711;BME280;20721;47.402;8.550;2023-01-25T04:24:25;97313;;;4.36;57.86
2711;BME280;20721;47.402;8.550;2023-01-25T04:25:25;97309;;;4.37;57.66
2711;BME280;20721;47.402;8.550;2023-01-25T04:26:25;97307;;;4.36;57.69
2711;BME280;20721;47.402;8.550;2023-01-25T04:27:25;97307;;;4.37;57.76
2711;BME280;20721;47.402;8.550;2023-01-25T04:29:35;97304;;;4.38;57.70
2711;BME280;20721;47.402;8.550;2023-01-25T04:30:25;97306;;;4.41;57.63
2711;BME280;20721;47.402;8.550;2023-01-25T04:32:25;97303;;;4.43;57.60
2711;BME280;20721;47.402;8.550;2023-01-25T04:33:25;97300;;;4.46;57.55
2711;BME280;20721;47.402;8.550;2023-01-25T04:34:25;97301;;;4.49;57.27
2711;BME280;20721;47.402;8.550;2023-01-25T04:35:25;97300;;;4.48;57.28
2711;BME280;20721;47.402;8.550;2023-01-25T04:36:25;97299;;;4.47;57.26
2711;BME280;20721;47.402;8.550;2023-01-25T04:37:25;97295;;;4.44;57.27
2711;BME280;20721;47.402;8.550;2023-01-25T04:39:25;97292;;;4.45;57.48
2711;BME280;20721;47.402;8.550;2023-01-25T04:40:25;97291;;;4.50;57.23
2711;BME280;20721;47.402;8.550;2023-01-25T04:41:28;97289;;;4.53;56.98
2711;BME280;20721;47.402;8.550;2023-01-25T04:42:25;97289;;;4.42;56.97
2711;BME280;20721;47.402;8.550;2023-01-25T04:43:25;97290;;;4.35;57.21
2711;BME280;20721;47.402;8.550;2023-01-25T04:44:25;97293;;;4.32;57.41
2711;BME280;20721;47.402;8.550;2023-01-25T04:46:25;97287;;;4.30;57.42
2711;BME280;20721;47.402;8.550;2023-01-25T04:47:25;97288;;;4.29;57.42
2711;BME280;20721;47.402;8.550;2023-01-25T04:49:25;97283;;;4.30;57.43
2711;BME280;20721;47.402;8.550;2023-01-25T04:50:25;97288;;;4.31;57.52
2711;BME280;20721;47.402;8.550;2023-01-25T04:51:25;97296;;;4.25;57.39
2711;BME280;20721;47.402;8.550;2023-01-25T04:52:25;97286;;;3.91;57.81
2711;BME280;20721;47.402;8.550;2023-01-25T04:53:25;97288;;;3.64;58.75
2711;BME280;20721;47.402;8.550;2023-01-25T04:54:25;97281;;;3.36;59.56
2711;BME280;20721;47.402;8.550;2023-01-25T04:55:25;97284;;;3.29;60.04
2711;BME280;20721;47.402;8.550;2023-01-25T04:56:25;97279;;;3.31;60.31
2711;BME280;20721;47.402;8.550;2023-01-25T04:57:25;97283;;;3.40;60.31
2711;BME280;20721;47.402;8.550;2023-01-25T04:58:25;97289;;;3.49;59.98
2711;BME280;20721;47.402;8.550;2023-01-25T04:59:25;97294;;;3.55;59.79
2711;BME280;20721;47.402;8.550;2023-01-25T05:00:25;97291;;;3.45;60.04
2711;BME280;20721;47.402;8.550;2023-01-25T05:01:25;97289;;;3.36;60.31
2711;BME280;20721;47.402;8.550;2023-01-25T05:02:26;97289;;;3.37;60.44
2711;BME280;20721;47.402;8.550;2023-01-25T05:03:27;97288;;;3.43;60.32
2711;BME280;20721;47.402;8.550;2023-01-25T05:04:25;97289;;;3.45;60.20
2711;BME280;20721;47.402;8.550;2023-01-25T05:05:25;97288;;;3.41;60.37
2711;BME280;20721;47.402;8.550;2023-01-25T05:06:25;97285;;;3.38;60.57
2711;BME280;20721;47.402;8.550;2023-01-25T05:07:25;97286;;;3.40;60.27
2711;BME280;20721;47.402;8.550;2023-01-25T05:08:25;97287;;;3.43;60.21
2711;BME280;20721;47.402;8.550;2023-01-25T05:09:25;97287;;;3.50;60.21
2711;BME280;20721;47.402;8.550;2023-01-25T05:10:25;97290;;;3.45;60.12
2711;BME280;20721;47.402;8.550;2023-01-25T05:11:25;97289;;;3.50;60.31
2711;BME280;20721;47.402;8.550;2023-01-25T05:12:25;97284;;;3.31;60.58
2711;BME280;20721;47.402;8.550;2023-01-25T05:13:25;97287;;;3.23;60.89
2711;BME280;20721;47.402;8.550;2023-01-25T05:14:25;97283;;;3.32;60.97
2711;BME280;20721;47.402;8.550;2023-01-25T05:15:25;97289;;;3.49;60.72
2711;BME280;20721;47.402;8.550;2023-01-25T05:16:25;97289;;;3.59;60.04
2711;BME280;20721;47.402;8.550;2023-01-25T05:17:25;97281;;;3.37;60.35
2711;BME280;20721;47.402;8.550;2023-01-25T05:18:29;97276;;;3.27;60.68
2711;BME280;20721;47.402;8.550;2023-01-25T05:19:25;97273;;;3.24;60.96
2711;BME280;20721;47.402;8.550;2023-01-25T05:20:25;97276;;;3.30;60.97
2711;BME280;20721;47.402;8.550;2023-01-25T05:21:35;97278;;;3.39;60.72
2711;BME280;20721;47.402;8.550;2023-01-25T05:22:25;97280;;;3.50;60.51
2711;BME280;20721;47.402;8.550;2023-01-25T05:23:25;97272;;;3.59;60.32
2711;BME280;20721;47.402;8.550;2023-01-25T05:24:29;97274;;;3.68;59.99
2711;BME280;20721;47.402;8.550;2023-01-25T05:25:35;97271;;;3.74;59.79
2711;BME280;20721;47.402;8.550;2023-01-25T05:26:35;97275;;;3.78;59.60
2711;BME280;20721;47.402;8.550;2023-01-25T05:27:25;97274;;;3.76;59.74
2711;BME280;20721;47.402;8.550;2023-01-25T05:28:25;97273;;;3.82;59.77
2711;BME280;20721;47.402;8.550;2023-01-25T05:29:26;97272;;;3.89;59.45
2711;BME280;20721;47.402;8.550;2023-01-25T05:30:25;97274;;;3.97;59.30
2711;BME280;20721;47.402;8.550;2023-01-25T05:31:25;97273;;;3.99;59.23
2711;BME280;20721;47.402;8.550;2023-01-25T05:32:25;97282;;;4.04;59.06
2711;BME280;20721;47.402;8.550;2023-01-25T05:33:25;97282;;;3.95;59.17
2711;BME280;20721;47.402;8.550;2023-01-25T05:34:25;97283;;;3.97;59.19
2711;BME280;20721;47.402;8.550;2023-01-25T05:35:25;97282;;;3.91;59.12
2711;BME280;20721;47.402;8.550;2023-01-25T05:36:25;97278;;;3.82;59.30
2711;BME280;20721;47.402;8.550;2023-01-25T05:37:25;97283;;;3.81;59.63
2711;BME280;20721;47.402;8.550;2023-01-25T05:39:25;97285;;;3.88;59.61
2711;BME280;20721;47.402;8.550;2023-01-25T05:40:25;97282;;;3.92;59.23
2711;BME280;20721;47.402;8.550;2023-01-25T05:41:25;97284;;;3.79;59.51
2711;BME280;20721;47.402;8.550;2023-01-25T05:42:25;97277;;;3.75;59.67
2711;BME280;20721;47.402;8.550;2023-01-25T05:44:25;97285;;;3.80;59.61
2711;BME280;20721;47.402;8.550;2023-01-25T05:45:25;97283;;;3.75;59.73
2711;BME280;20721;47.402;8.550;2023-01-25T05:46:26;97280;;;3.73;59.79
2711;BME280;20721;47.402;8.550;2023-01-25T05:47:25;97283;;;3.76;59.84
2711;BME280;20721;47.402;8.550;2023-01-25T05:48:25;97280;;;3.79;59.80
2711;BME280;20721;47.402;8.550;2023-01-25T05:49:25;97286;;;3.83;59.95
2711;BME280;20721;47.402;8.550;2023-01-25T05:50:25;97284;;;3.92;59.84
2711;BME280;20721;47.402;8.550;2023-01-25T05:51:25;97280;;;3.86;59.70
2711;BME280;20721;47.402;8.550;2023-01-25T05:52:25;97283;;;3.88;59.88
2711;BME280;20721;47.402;8.550;2023-01-25T05:53:26;97278;;;3.94;59.81
2711;BME280;20721;47.402;8.550;2023-01-25T05:54:25;97275;;;3.97;59.57
2711;BME280;20721;47.402;8.550;2023-01-25T05:55:25;97280;;;4.01;59.66
2711;BME280;20721;47.402;8.550;2023-01-25T05:56:25;97275;;;4.07;59.54
2711;BME280;20721;47.402;8.550;2023-01-25T05:57:27;97279;;;4.06;59.49
2711;BME280;20721;47.402;8.550;2023-01-25T05:59:25;97280;;;4.07;59.30
2711;BME280;20721;47.402;8.550;2023-01-25T06:00:26;97279;;;3.74;59.65
2711;BME280;20721;47.402;8.550;2023-01-25T06:01:26;97283;;;3.62;60.06
2711;BME280;20721;47.402;8.550;2023-01-25T06:02:26;97281;;;3.61;60.21
2711;BME280;20721;47.402;8.550;2023-01-25T06:03:25;97280;;;3.63;60.21
2711;BME280;20721;47.402;8.550;2023-01-25T06:04:25;97272;;;3.71;60.12
2711;BME280;20721;47.402;8.550;2023-01-25T06:05:25;97273;;;3.81;59.94
2711;BME280;20721;47.402;8.550;2023-01-25T06:06:25;97276;;;3.82;59.79
2711;BME280;20721;47.402;8.550;2023-01-25T06:07:25;97276;;;3.78;59.65
2711;BME280;20721;47.402;8.550;2023-01-25T06:08:25;97274;;;3.68;59.42
2711;BME280;20721;47.402;8.550;2023-01-25T06:09:26;97272;;;3.67;59.75
2711;BME280;20721;47.402;8.550;2023-01-25T06:10:25;97275;;;3.63;59.72
2711;BME280;20721;47.402;8.550;2023-01-25T06:11:25;97273;;;3.56;60.04
2711;BME280;20721;47.402;8.550;2023-01-25T06:12:25;97277;;;3.63;60.12
2711;BME280;20721;47.402;8.550;2023-01-25T06:13:25;97278;;;3.70;59.86
2711;BME280;20721;47.402;8.550;2023-01-25T06:14:25;97277;;;3.77;59.66
2711;BME280;20721;47.402;8.550;2023-01-25T06:15:25;97276;;;3.79;59.30
2711;BME280;20721;47.402;8.550;2023-01-25T06:16:26;97276;;;3.71;59.58
2711;BME280;20721;47.402;8.550;2023-01-25T06:17:25;97277;;;3.49;59.75
2711;BME280;20721;47.402;8.550;2023-01-25T06:18:25;97277;;;3.44;60.29
2711;BME280;20721;47.402;8.550;2023-01-25T06:19:25;97271;;;3.39;60.10
2711;BME280;20721;47.402;8.550;2023-01-25T06:20:25;97277;;;3.42;60.07